sensor_id;sensor_type;location;lat;lon;timestamp;pressure;altitude;pressure_sealevel;temperature;humidity
929;BME280;451;47.988;7.842;2023-03-13T00:05:59;98094.41;;;13.77;68.54
929;BME280;451;47.988;7.842;2023-03-13T00:15:02;98086.50;;;13.77;68.83
929;BME280;451;47.988;7.842;2023-03-13T00:24:09;98106.66;;;13.97;68.58
929;BME280;451;47.988;7.842;2023-03-13T00:33:12;98101.78;;;13.94;68.64
929;BME280;451;47.988;7.842;2023-03-13T00:42:17;98064.75;;;13.88;68.46
929;BME280;451;47.988;7.842;2023-03-13T00:51:21;98042.81;;;13.87;68.56
929;BME280;451;47.988;7.842;2023-03-13T01:00:29;98078.59;;;13.90;69.34
929;BME280;451;47.988;7.842;2023-03-13T01:09:32;98007.03;;;13.71;68.89
929;BME280;451;47.988;7.842;2023-03-13T01:18:38;98076.00;;;14.29;67.94
929;BME280;451;47.988;7.842;2023-03-13T01:27:41;98065.22;;;14.11;75.82
929;BME280;451;47.988;7.842;2023-03-13T01:36:46;98050.41;;;13.29;84.33
929;BME280;451;47.988;7.842;2023-03-13T01:45:57;98053.63;;;13.31;86.86
929;BME280;451;47.988;7.842;2023-03-13T01:55:08;97979.38;;;13.00;83.80
929;BME280;451;47.988;7.842;2023-03-13T02:04:18;98030.06;;;13.17;84.58
929;BME280;451;47.988;7.842;2023-03-13T02:13:24;97997.94;;;13.13;84.70
929;BME280;451;47.988;7.842;2023-03-13T02:22:31;97998.81;;;13.33;82.42
929;BME280;451;47.988;7.842;2023-03-13T02:31:38;97960.69;;;13.43;80.78
929;BME280;451;47.988;7.842;2023-03-13T02:40:43;97930.97;;;13.27;79.04
929;BME280;451;47.988;7.842;2023-03-13T02:49:49;97931.63;;;13.56;78.50
929;BME280;451;47.988;7.842;2023-03-13T02:58:53;97902.97;;;13.40;78.85
929;BME280;451;47.988;7.842;2023-03-13T03:08:00;97935.06;;;13.63;79.91
929;BME280;451;47.988;7.842;2023-03-13T03:17:06;97922.66;;;13.37;81.77
929;BME280;451;47.988;7.842;2023-03-13T03:26:10;97868.78;;;12.92;83.40
929;BME280;451;47.988;7.842;2023-03-13T03:35:14;97838.84;;;12.59;85.83
929;BME280;451;47.988;7.842;2023-03-13T03:44:19;97866.88;;;12.73;87.53
929;BME280;451;47.988;7.842;2023-03-13T03:53:29;97839.84;;;11.76;100.00
929;BME280;451;47.988;7.842;2023-03-13T04:02:34;97923.50;;;12.01;100.00
929;BME280;451;47.988;7.842;2023-03-13T04:11:38;97931.47;;;12.42;100.00
929;BME280;451;47.988;7.842;2023-03-13T04:20:46;97907.63;;;12.64;97.19
929;BME280;451;47.988;7.842;2023-03-13T04:29:50;97892.22;;;12.61;95.29
929;BME280;451;47.988;7.842;2023-03-13T04:39:15;97855.09;;;12.69;93.27
929;BME280;451;47.988;7.842;2023-03-13T04:48:44;97883.13;;;12.76;91.50
929;BME280;451;47.988;7.842;2023-03-13T04:58:09;97772.38;;;12.09;96.02
929;BME280;451;47.988;7.842;2023-03-13T05:07:20;97786.88;;;11.29;100.00
929;BME280;451;47.988;7.842;2023-03-13T05:16:48;97895.69;;;12.27;100.00
929;BME280;451;47.988;7.842;2023-03-13T05:26:11;97884.81;;;12.36;100.00
929;BME280;451;47.988;7.842;2023-03-13T05:35:51;97880.22;;;12.58;100.00
929;BME280;451;47.988;7.842;2023-03-13T05:45:02;97895.44;;;12.63;99.59
929;BME280;451;47.988;7.842;2023-03-13T05:54:25;97861.19;;;12.69;98.42
929;BME280;451;47.988;7.842;2023-03-13T06:03:38;97781.16;;;12.23;98.01
929;BME280;451;47.988;7.842;2023-03-13T06:12:43;97908.16;;;13.07;96.88
929;BME280;451;47.988;7.842;2023-03-13T06:21:48;97896.25;;;13.30;96.31
929;BME280;451;47.988;7.842;2023-03-13T06:30:53;97884.88;;;13.63;95.47
929;BME280;451;47.988;7.842;2023-03-13T06:39:56;97836.16;;;13.46;94.16
929;BME280;451;47.988;7.842;2023-03-13T06:49:00;97890.78;;;13.78;94.25
929;BME280;451;47.988;7.842;2023-03-13T06:58:06;97898.28;;;13.81;93.55
929;BME280;451;47.988;7.842;2023-03-13T07:07:11;97898.09;;;13.96;94.25
929;BME280;451;47.988;7.842;2023-03-13T07:16:14;97889.94;;;14.10;91.71
929;BME280;451;47.988;7.842;2023-03-13T07:25:18;97775.50;;;13.97;88.45
929;BME280;451;47.988;7.842;2023-03-13T07:34:21;97872.44;;;14.74;88.08
929;BME280;451;47.988;7.842;2023-03-13T07:43:26;97874.72;;;15.33;86.75
929;BME280;451;47.988;7.842;2023-03-13T07:52:30;97879.78;;;15.41;85.33
929;BME280;451;47.988;7.842;2023-03-13T08:01:34;97821.88;;;15.69;83.55
929;BME280;451;47.988;7.842;2023-03-13T08:10:38;97842.41;;;15.99;80.66
929;BME280;451;47.988;7.842;2023-03-13T08:19:43;97787.63;;;15.68;81.13
929;BME280;451;47.988;7.842;2023-03-13T08:28:47;97794.88;;;15.79;80.05
929;BME280;451;47.988;7.842;2023-03-13T08:37:54;97701.25;;;15.24;79.96
929;BME280;451;47.988;7.842;2023-03-13T08:46:57;97786.75;;;16.77;74.63
929;BME280;451;47.988;7.842;2023-03-13T08:56:02;97779.72;;;17.36;71.43
929;BME280;451;47.988;7.842;2023-03-13T09:05:07;97762.13;;;17.81;69.99
929;BME280;451;47.988;7.842;2023-03-13T09:14:11;97734.56;;;18.10;69.00
929;BME280;451;47.988;7.842;2023-03-13T09:23:15;97721.50;;;18.37;67.40
929;BME280;451;47.988;7.842;2023-03-13T09:32:19;97725.00;;;18.26;67.11
929;BME280;451;47.988;7.842;2023-03-13T09:41:26;97692.16;;;18.77;64.90
929;BME280;451;47.988;7.842;2023-03-13T09:50:35;97673.50;;;19.49;61.83
929;BME280;451;47.988;7.842;2023-03-13T09:59:46;97657.78;;;19.48;61.26
929;BME280;451;47.988;7.842;2023-03-13T10:08:53;97655.81;;;19.43;61.77
929;BME280;451;47.988;7.842;2023-03-13T10:18:12;97621.91;;;20.04;60.43
929;BME280;451;47.988;7.842;2023-03-13T10:27:17;97602.63;;;20.56;58.36
929;BME280;451;47.988;7.842;2023-03-13T10:36:20;97575.66;;;20.99;57.63
929;BME280;451;47.988;7.842;2023-03-13T10:45:26;97547.28;;;21.35;56.37
929;BME280;451;47.988;7.842;2023-03-13T10:54:34;97556.09;;;20.88;55.97
929;BME280;451;47.988;7.842;2023-03-13T11:03:39;97506.97;;;21.00;55.26
929;BME280;451;47.988;7.842;2023-03-13T11:12:43;97488.38;;;20.68;54.94
929;BME280;451;47.988;7.842;2023-03-13T11:22:02;97454.00;;;20.86;55.34
929;BME280;451;47.988;7.842;2023-03-13T11:31:12;97376.97;;;20.63;54.45
929;BME280;451;47.988;7.842;2023-03-13T11:40:21;97374.13;;;20.90;53.87
929;BME280;451;47.988;7.842;2023-03-13T11:49:38;97420.03;;;21.90;53.73
929;BME280;451;47.988;7.842;2023-03-13T11:59:00;97394.94;;;22.80;50.43
929;BME280;451;47.988;7.842;2023-03-13T12:08:10;97383.97;;;22.82;51.02
929;BME280;451;47.988;7.842;2023-03-13T12:17:25;97324.38;;;22.31;50.70
929;BME280;451;47.988;7.842;2023-03-13T12:26:34;97297.09;;;22.29;50.41
929;BME280;451;47.988;7.842;2023-03-13T12:35:43;97237.06;;;22.84;49.81
929;BME280;451;47.988;7.842;2023-03-13T12:44:48;97232.00;;;23.16;48.23
929;BME280;451;47.988;7.842;2023-03-13T12:54:09;97211.47;;;24.31;45.99
929;BME280;451;47.988;7.842;2023-03-13T13:03:26;97092.22;;;23.47;46.33
929;BME280;451;47.988;7.842;2023-03-13T13:12:32;97156.69;;;23.65;47.21
929;BME280;451;47.988;7.842;2023-03-13T13:21:35;97142.56;;;23.79;48.55
929;BME280;451;47.988;7.842;2023-03-13T13:30:40;97129.13;;;23.79;48.61
929;BME280;451;47.988;7.842;2023-03-13T13:39:44;97120.78;;;24.41;48.10
929;BME280;451;47.988;7.842;2023-03-13T13:49:05;97102.00;;;23.99;48.65
929;BME280;451;47.988;7.842;2023-03-13T13:58:13;97099.31;;;23.80;48.94
929;BME280;451;47.988;7.842;2023-03-13T14:07:24;97074.13;;;23.76;49.24
929;BME280;451;47.988;7.842;2023-03-13T14:16:30;97051.13;;;23.70;49.46
929;BME280;451;47.988;7.842;2023-03-13T14:25:43;97033.94;;;23.90;48.64
929;BME280;451;47.988;7.842;2023-03-13T14:34:47;96991.69;;;24.14;48.01
929;BME280;451;47.988;7.842;2023-03-13T14:43:52;96992.28;;;25.03;46.36
929;BME280;451;47.988;7.842;2023-03-13T14:52:59;96969.53;;;24.68;45.00
929;BME280;451;47.988;7.842;2023-03-13T15:02:18;96921.75;;;24.79;44.23
929;BME280;451;47.988;7.842;2023-03-13T15:11:27;96881.91;;;24.26;44.29
929;BME280;451;47.988;7.842;2023-03-13T15:20:33;96866.84;;;23.65;43.80
929;BME280;451;47.988;7.842;2023-03-13T15:29:36;96853.84;;;24.46;43.88
929;BME280;451;47.988;7.842;2023-03-13T15:38:40;96787.09;;;23.52;45.44
929;BME280;451;47.988;7.842;2023-03-13T15:47:44;96828.94;;;24.13;44.13
929;BME280;451;47.988;7.842;2023-03-13T15:56:50;96795.91;;;23.99;43.85
929;BME280;451;47.988;7.842;2023-03-13T16:05:54;96759.50;;;23.79;43.67
929;BME280;451;47.988;7.842;2023-03-13T16:14:59;96738.13;;;23.88;42.25
929;BME280;451;47.988;7.842;2023-03-13T16:24:02;96628.16;;;22.63;41.40
929;BME280;451;47.988;7.842;2023-03-13T16:33:07;96717.38;;;22.82;41.72
929;BME280;451;47.988;7.842;2023-03-13T16:42:10;96690.41;;;22.92;41.57
929;BME280;451;47.988;7.842;2023-03-13T16:51:19;96654.75;;;22.78;41.40
929;BME280;451;47.988;7.842;2023-03-13T17:00:24;96644.97;;;22.50;41.73
929;BME280;451;47.988;7.842;2023-03-13T17:09:29;96600.47;;;22.54;41.95
929;BME280;451;47.988;7.842;2023-03-13T17:18:33;96595.97;;;22.31;42.03
929;BME280;451;47.988;7.842;2023-03-13T17:27:37;96582.47;;;22.41;42.44
929;BME280;451;47.988;7.842;2023-03-13T17:36:42;96591.75;;;22.30;42.69
929;BME280;451;47.988;7.842;2023-03-13T17:45:47;96625.16;;;21.71;42.86
929;BME280;451;47.988;7.842;2023-03-13T17:54:50;96624.13;;;21.91;42.81
929;BME280;451;47.988;7.842;2023-03-13T18:03:56;96581.16;;;21.40;43.60
929;BME280;451;47.988;7.842;2023-03-13T18:12:59;96572.88;;;21.17;44.51
929;BME280;451;47.988;7.842;2023-03-13T18:22:05;96568.78;;;21.44;44.51
929;BME280;451;47.988;7.842;2023-03-13T18:31:10;96552.34;;;20.84;45.61
929;BME280;451;47.988;7.842;2023-03-13T18:40:16;96535.50;;;21.07;45.29
929;BME280;451;47.988;7.842;2023-03-13T18:49:21;96520.41;;;20.98;44.92
929;BME280;451;47.988;7.842;2023-03-13T18:58:26;96569.38;;;20.88;44.71
929;BME280;451;47.988;7.842;2023-03-13T19:07:30;96785.91;;;19.93;54.41
929;BME280;451;47.988;7.842;2023-03-13T19:16:36;96751.00;;;14.94;100.00
929;BME280;451;47.988;7.842;2023-03-13T19:25:40;96985.66;;;15.17;100.00
929;BME280;451;47.988;7.842;2023-03-13T19:34:45;96901.91;;;13.31;100.00
929;BME280;451;47.988;7.842;2023-03-13T19:43:49;97033.72;;;13.74;100.00
929;BME280;451;47.988;7.842;2023-03-13T19:52:53;97065.13;;;11.80;100.00
929;BME280;451;47.988;7.842;2023-03-13T20:01:57;97142.06;;;12.70;100.00
929;BME280;451;47.988;7.842;2023-03-13T20:11:03;97145.69;;;12.19;100.00
929;BME280;451;47.988;7.842;2023-03-13T20:20:08;96982.31;;;11.69;100.00
929;BME280;451;47.988;7.842;2023-03-13T20:29:13;97032.00;;;11.59;100.00
929;BME280;451;47.988;7.842;2023-03-13T20:38:16;97128.28;;;11.36;100.00
929;BME280;451;47.988;7.842;2023-03-13T20:47:21;97132.00;;;11.08;100.00
929;BME280;451;47.988;7.842;2023-03-13T20:56:24;97119.06;;;11.07;100.00
929;BME280;451;47.988;7.842;2023-03-13T21:05:29;97087.94;;;11.04;100.00
929;BME280;451;47.988;7.842;2023-03-13T21:14:32;97023.34;;;10.50;100.00
929;BME280;451;47.988;7.842;2023-03-13T21:23:38;97041.81;;;10.95;100.00
929;BME280;451;47.988;7.842;2023-03-13T21:32:42;97023.63;;;11.38;100.00
929;BME280;451;47.988;7.842;2023-03-13T21:41:46;97027.66;;;10.96;100.00
929;BME280;451;47.988;7.842;2023-03-13T21:50:50;97002.03;;;11.29;100.00
929;BME280;451;47.988;7.842;2023-03-13T21:59:55;96988.53;;;11.50;100.00
929;BME280;451;47.988;7.842;2023-03-13T22:08:58;96997.31;;;11.69;100.00
929;BME280;451;47.988;7.842;2023-03-13T22:18:03;97064.63;;;11.96;100.00
929;BME280;451;47.988;7.842;2023-03-13T22:27:06;97069.22;;;12.01;100.00
929;BME280;451;47.988;7.842;2023-03-13T22:36:12;97068.41;;;12.00;100.00
929;BME280;451;47.988;7.842;2023-03-13T22:45:15;97071.91;;;11.56;100.00
929;BME280;451;47.988;7.842;2023-03-13T22:54:24;97063.81;;;11.13;100.00
929;BME280;451;47.988;7.842;2023-03-13T23:03:27;97006.25;;;10.92;100.00
929;BME280;451;47.988;7.842;2023-03-13T23:12:31;96905.38;;;10.86;100.00
929;BME280;451;47.988;7.842;2023-03-13T23:21:34;96881.22;;;10.58;100.00
929;BME280;451;47.988;7.842;2023-03-13T23:30:39;96967.44;;;10.81;100.00
929;BME280;451;47.988;7.842;2023-03-13T23:39:42;96995.56;;;11.25;100.00
929;BME280;451;47.988;7.842;2023-03-13T23:48:46;96984.19;;;11.31;100.00
929;BME280;451;47.988;7.842;2023-03-13T23:57:49;96981.56;;;11.94;100.00
